createdAt,value
2022-10-11T00:01:51.507Z,100.00
2022-10-11T00:04:56.517Z,100.00
2022-10-11T00:08:00.124Z,100.00
2022-10-11T00:11:04.789Z,100.00
2022-10-11T00:14:07.850Z,100.00
2022-10-11T00:17:13.077Z,100.00
2022-10-11T00:20:16.769Z,100.00
2022-10-11T00:23:19.988Z,100.00
2022-10-11T00:26:23.690Z,100.00
2022-10-11T00:29:26.936Z,100.00
2022-10-11T00:32:32.087Z,100.00
2022-10-11T00:35:35.641Z,100.00
2022-10-11T00:38:41.288Z,100.00
2022-10-11T00:41:45.336Z,100.00
2022-10-11T00:44:50.472Z,100.00
2022-10-11T00:47:55.953Z,100.00
2022-10-11T00:51:03.447Z,100.00
2022-10-11T00:54:13.414Z,100.00
2022-10-11T00:57:21.634Z,100.00
2022-10-11T01:00:26.797Z,100.00
2022-10-11T01:03:41.225Z,100.00
2022-10-11T01:06:48.465Z,100.00
2022-10-11T01:09:57.326Z,100.00
2022-10-11T01:13:13.298Z,100.00
2022-10-11T01:16:25.413Z,100.00
2022-10-11T01:19:50.949Z,100.00
2022-10-11T01:23:41.181Z,100.00
2022-10-11T01:27:37.855Z,100.00
2022-10-11T01:30:46.848Z,100.00
2022-10-11T01:34:03.027Z,100.00
2022-10-11T01:37:19.771Z,100.00
2022-10-11T01:40:26.217Z,100.00
2022-10-11T01:43:33.744Z,100.00
2022-10-11T01:46:42.404Z,100.00
2022-10-11T01:49:53.963Z,100.00
2022-10-11T01:53:03.752Z,100.00
2022-10-11T01:56:21.648Z,100.00
2022-10-11T01:59:42.969Z,100.00
2022-10-11T02:03:12.313Z,100.00
2022-10-11T02:06:24.340Z,100.00
2022-10-11T02:09:39.373Z,100.00
2022-10-11T02:12:54.737Z,100.00
2022-10-11T02:16:03.540Z,100.00
2022-10-11T02:19:21.177Z,100.00
2022-10-11T02:22:38.035Z,100.00
2022-10-11T02:25:53.473Z,100.00
2022-10-11T02:29:03.588Z,100.00
2022-10-11T02:32:35.493Z,100.00
2022-10-11T02:36:02.426Z,100.00
2022-10-11T02:39:26.015Z,100.00
2022-10-11T02:42:39.786Z,100.00
2022-10-11T02:45:55.939Z,100.00
2022-10-11T02:49:01.423Z,100.00
2022-10-11T02:52:13.285Z,100.00
2022-10-11T02:55:20.540Z,100.00
2022-10-11T02:58:36.426Z,100.00
2022-10-11T03:01:41.153Z,100.00
2022-10-11T03:04:46.487Z,100.00
2022-10-11T03:08:00.125Z,100.00
2022-10-11T03:11:04.845Z,100.00
2022-10-11T03:14:08.673Z,100.00
2022-10-11T03:17:37.348Z,100.00
2022-10-11T03:21:16.707Z,100.00
2022-10-11T03:24:37.945Z,100.00
2022-10-11T03:27:44.182Z,100.00
2022-10-11T03:30:49.904Z,100.00
2022-10-11T03:33:53.999Z,100.00
2022-10-11T03:36:57.717Z,100.00
2022-10-11T03:40:09.618Z,100.00
2022-10-11T03:43:17.758Z,100.00
2022-10-11T03:46:24.183Z,100.00
2022-10-11T03:49:32.399Z,100.00
2022-10-11T03:52:43.169Z,100.00
2022-10-11T03:56:18.385Z,100.00
2022-10-11T03:59:42.068Z,100.00
2022-10-11T04:02:50.870Z,100.00
2022-10-11T04:05:58.039Z,100.00
2022-10-11T04:09:01.751Z,100.00
2022-10-11T04:12:55.488Z,100.00
2022-10-11T04:16:17.963Z,100.00
2022-10-11T04:19:24.563Z,100.00
2022-10-11T04:22:28.213Z,100.00
2022-10-11T04:25:32.977Z,100.00
2022-10-11T04:28:44.394Z,100.00
2022-10-11T04:32:07.815Z,100.00
2022-10-11T04:35:19.457Z,100.00
2022-10-11T04:38:30.392Z,100.00
2022-10-11T04:41:36.046Z,100.00
2022-10-11T04:44:44.180Z,100.00
2022-10-11T04:47:48.901Z,100.00
2022-10-11T04:50:53.085Z,100.00
2022-10-11T04:53:56.672Z,100.00
2022-10-11T04:57:00.100Z,100.00
2022-10-11T05:00:06.137Z,100.00
2022-10-11T05:03:09.207Z,100.00
2022-10-11T05:06:13.419Z,100.00
2022-10-11T05:09:24.781Z,100.00
2022-10-11T05:12:28.264Z,100.00
2022-10-11T05:15:33.160Z,100.00
2022-10-11T05:18:38.821Z,100.00
2022-10-11T05:21:43.458Z,100.00
2022-10-11T05:24:47.564Z,100.00
2022-10-11T05:27:52.295Z,100.00
2022-10-11T05:30:58.482Z,100.00
2022-10-11T05:34:01.698Z,100.00
2022-10-11T05:37:04.772Z,100.00
2022-10-11T05:40:09.574Z,100.00
2022-10-11T05:43:18.393Z,100.00
2022-10-11T05:46:23.401Z,100.00
2022-10-11T05:49:26.406Z,100.00
2022-10-11T05:52:29.435Z,100.00
2022-10-11T05:55:37.100Z,100.00
2022-10-11T05:58:40.918Z,100.00
2022-10-11T06:01:45.352Z,100.00
2022-10-11T06:04:48.354Z,100.00
2022-10-11T06:07:58.081Z,100.00
2022-10-11T06:11:13.463Z,100.00
2022-10-11T06:14:19.178Z,100.00
2022-10-11T06:17:28.691Z,100.00
2022-10-11T06:20:34.446Z,100.00
2022-10-11T06:23:39.509Z,100.00
2022-10-11T06:26:44.713Z,100.00
2022-10-11T06:29:47.949Z,100.00
2022-10-11T06:32:53.368Z,100.00
2022-10-11T06:35:59.893Z,100.00
2022-10-11T06:39:03.175Z,100.00
2022-10-11T06:42:07.098Z,100.00
2022-10-11T06:45:11.874Z,100.00
2022-10-11T06:48:40.885Z,100.00
2022-10-11T06:51:59.571Z,100.00
2022-10-11T06:55:05.871Z,100.00
2022-10-11T07:02:13.713Z,100.00
2022-10-11T07:05:21.381Z,100.00
2022-10-11T07:08:25.953Z,100.00
2022-10-11T07:11:31.350Z,100.00
2022-10-11T07:14:35.120Z,100.00
2022-10-11T07:17:40.274Z,100.00
2022-10-11T07:21:00.499Z,100.00
2022-10-11T07:24:41.813Z,100.00
2022-10-11T07:27:45.623Z,100.00
2022-10-11T07:30:49.453Z,100.00
2022-10-11T07:33:52.883Z,100.00
2022-10-11T07:36:59.659Z,100.00
2022-10-11T07:40:03.082Z,100.00
2022-10-11T07:43:06.285Z,100.00
2022-10-11T07:46:12.151Z,100.00
2022-10-11T07:49:16.507Z,100.00
2022-10-11T07:52:23.853Z,100.00
2022-10-11T07:55:30.450Z,100.00
2022-10-11T07:58:34.148Z,100.00
2022-10-11T08:01:37.873Z,100.00
2022-10-11T08:04:41.209Z,100.00
2022-10-11T08:07:49.230Z,100.00
2022-10-11T08:10:53.159Z,100.00
2022-10-11T08:13:56.850Z,100.00
2022-10-11T08:17:00.205Z,100.00
2022-10-11T08:20:10.062Z,100.00
2022-10-11T08:23:17.640Z,100.00
2022-10-11T08:26:21.625Z,100.00
2022-10-11T08:29:29.577Z,100.00
2022-10-11T08:32:33.079Z,100.00
2022-10-11T08:35:37.785Z,100.00
2022-10-11T08:38:44.759Z,100.00
2022-10-11T08:41:55.617Z,100.00
2022-10-11T08:45:11.101Z,100.00
2022-10-11T08:48:20.139Z,100.00
2022-10-11T08:51:30.793Z,100.00
2022-10-11T08:54:45.270Z,100.00
2022-10-11T08:57:57.035Z,100.00
2022-10-11T09:01:07.289Z,100.00
2022-10-11T09:04:17.852Z,100.00
2022-10-11T09:07:49.461Z,100.00
2022-10-11T09:16:24.193Z,100.00
2022-10-11T09:19:48.993Z,100.00
2022-10-11T09:22:59.843Z,100.00
2022-10-11T09:26:07.859Z,100.00
2022-10-11T09:29:22.402Z,100.00
2022-10-11T09:32:29.763Z,100.00
2022-10-11T09:35:40.975Z,100.00
2022-10-11T09:38:49.910Z,100.00
2022-10-11T09:42:00.046Z,100.00
2022-10-11T09:45:16.009Z,100.00
2022-10-11T09:48:21.967Z,100.00
2022-10-11T09:51:28.588Z,100.00
2022-10-11T09:54:41.757Z,100.00
2022-10-11T09:57:55.878Z,100.00
2022-10-11T10:01:07.653Z,100.00
2022-10-11T10:04:13.202Z,100.00
2022-10-11T10:07:16.839Z,100.00
2022-10-11T10:10:39.842Z,100.00
2022-10-11T10:13:46.038Z,100.00
2022-10-11T10:17:01.554Z,100.00
2022-10-11T10:20:05.732Z,100.00
2022-10-11T10:23:12.008Z,100.00
2022-10-11T10:26:17.412Z,100.00
2022-10-11T10:29:21.173Z,100.00
2022-10-11T10:32:31.956Z,100.00
2022-10-11T10:35:39.529Z,100.00
2022-10-11T10:38:52.312Z,100.00
2022-10-11T10:41:56.301Z,100.00
2022-10-11T10:45:00.077Z,100.00
2022-10-11T10:48:19.479Z,100.00
2022-10-11T10:51:33.285Z,100.00
2022-10-11T10:54:47.124Z,100.00
2022-10-11T10:58:05.532Z,100.00
2022-10-11T11:01:14.603Z,100.00
2022-10-11T11:04:28.241Z,100.00
2022-10-11T11:07:37.255Z,100.00
2022-10-11T11:10:49.783Z,100.00
2022-10-11T11:13:58.094Z,100.00
2022-10-11T11:17:09.915Z,100.00
2022-10-11T11:20:32.821Z,100.00
2022-10-11T11:23:45.457Z,100.00
2022-10-11T11:26:55.088Z,100.00
2022-10-11T11:30:04.539Z,100.00
2022-10-11T11:33:17.828Z,100.00
2022-10-11T11:36:37.932Z,100.00
2022-10-11T11:39:44.710Z,100.00
2022-10-11T11:42:51.924Z,100.00
2022-10-11T11:45:58.954Z,100.00
2022-10-11T11:49:09.672Z,100.00
2022-10-11T11:52:26.295Z,100.00
2022-10-11T11:55:33.833Z,100.00
2022-10-11T11:58:45.313Z,100.00
2022-10-11T12:01:54.893Z,100.00
2022-10-11T12:04:58.417Z,100.00
2022-10-11T12:08:06.056Z,100.00
2022-10-11T12:11:21.476Z,100.00
2022-10-11T12:14:37.421Z,100.00
2022-10-11T12:18:17.273Z,100.00
2022-10-11T12:21:29.850Z,100.00
2022-10-11T12:24:54.446Z,100.00
2022-10-11T12:27:58.514Z,100.00
2022-10-11T12:31:17.771Z,100.00
2022-10-11T12:34:34.997Z,97.28
2022-10-11T12:38:06.536Z,100.00
2022-10-11T12:41:50.321Z,99.65
2022-10-11T12:45:31.219Z,96.51
2022-10-11T12:48:51.668Z,96.22
2022-10-11T12:52:00.906Z,97.14
2022-10-11T12:55:14.427Z,100.00
2022-10-11T12:58:38.808Z,100.00
2022-10-11T13:01:51.235Z,100.00
2022-10-11T13:04:54.457Z,100.00
2022-10-11T13:08:00.208Z,100.00
2022-10-11T13:11:06.493Z,100.00
2022-10-11T13:14:16.024Z,100.00
2022-10-11T13:17:25.798Z,100.00
2022-10-11T13:20:33.359Z,98.07
2022-10-11T13:23:39.772Z,100.00
2022-10-11T13:26:44.890Z,96.51
2022-10-11T13:29:51.601Z,97.68
2022-10-11T13:32:54.989Z,96.97
2022-10-11T13:35:57.898Z,99.13
2022-10-11T13:39:02.191Z,97.50
2022-10-11T13:42:09.783Z,96.90
2022-10-11T13:45:16.632Z,96.23
2022-10-11T13:48:19.505Z,94.63
2022-10-11T13:51:29.862Z,94.29
2022-10-11T13:55:07.801Z,95.24
2022-10-11T13:58:18.800Z,93.65
2022-10-11T14:01:26.886Z,91.87
2022-10-11T14:04:40.832Z,89.91
2022-10-11T14:07:43.656Z,91.08
2022-10-11T14:10:47.488Z,94.33
2022-10-11T14:13:50.769Z,91.44
2022-10-11T14:16:58.648Z,91.83
2022-10-11T14:20:15.494Z,92.29
2022-10-11T14:23:18.360Z,90.90
2022-10-11T14:26:22.322Z,94.22
2022-10-11T14:29:28.374Z,95.25
2022-10-11T14:32:35.182Z,94.44
2022-10-11T14:35:38.208Z,92.46
2022-10-11T14:38:41.131Z,91.83
2022-10-11T14:41:44.127Z,90.47
2022-10-11T14:44:46.957Z,90.41
2022-10-11T14:47:51.964Z,90.87
2022-10-11T14:50:59.131Z,93.10
2022-10-11T14:54:01.997Z,97.78
2022-10-11T14:57:05.712Z,100.00
2022-10-11T15:00:17.264Z,98.85
2022-10-11T15:03:21.468Z,98.45
2022-10-11T15:06:28.378Z,98.90
2022-10-11T15:09:31.730Z,100.00
2022-10-11T15:12:34.541Z,99.48
2022-10-11T15:15:40.955Z,98.52
2022-10-11T15:18:50.995Z,94.90
2022-10-11T15:21:54.305Z,95.70
2022-10-11T15:24:57.176Z,99.46
2022-10-11T15:28:00.197Z,100.00
2022-10-11T15:31:03.274Z,100.00
2022-10-11T15:34:07.510Z,100.00
2022-10-11T15:37:10.376Z,100.00
2022-10-11T15:40:21.998Z,100.00
2022-10-11T15:43:25.346Z,100.00
2022-10-11T15:46:28.239Z,100.00
2022-10-11T15:49:32.491Z,100.00
2022-10-11T15:52:35.330Z,100.00
2022-10-11T15:55:40.198Z,100.00
2022-10-11T15:58:43.449Z,100.00
2022-10-11T16:01:47.017Z,100.00
2022-10-11T16:04:51.266Z,100.00
2022-10-11T16:07:55.311Z,100.00
2022-10-11T16:10:58.264Z,100.00
2022-10-11T16:14:01.104Z,100.00
2022-10-11T16:17:05.717Z,100.00
2022-10-11T16:20:10.631Z,100.00
2022-10-11T16:23:15.319Z,100.00
2022-10-11T16:26:18.563Z,100.00
2022-10-11T16:29:22.057Z,100.00
2022-10-11T16:32:25.500Z,100.00
2022-10-11T16:35:32.487Z,100.00
2022-10-11T16:38:35.533Z,100.00
2022-10-11T16:41:38.817Z,100.00
2022-10-11T16:44:41.814Z,100.00
2022-10-11T16:47:45.239Z,100.00
2022-10-11T16:50:49.411Z,100.00
2022-10-11T16:53:52.614Z,100.00
2022-10-11T16:56:55.571Z,100.00
2022-10-11T16:59:58.550Z,100.00
2022-10-11T17:03:01.543Z,100.00
2022-10-11T17:06:07.065Z,100.00
2022-10-11T17:09:11.374Z,100.00
2022-10-11T17:12:16.123Z,100.00
2022-10-11T17:15:19.103Z,100.00
2022-10-11T17:18:21.986Z,100.00
2022-10-11T17:21:26.445Z,100.00
2022-10-11T17:24:29.531Z,100.00
2022-10-11T17:27:33.025Z,100.00
2022-10-11T17:30:35.887Z,100.00
2022-10-11T17:33:38.913Z,100.00
2022-10-11T17:36:43.868Z,100.00
2022-10-11T17:39:46.712Z,100.00
2022-10-11T17:42:49.648Z,100.00
2022-10-11T17:45:56.109Z,100.00
2022-10-11T17:48:59.890Z,100.00
2022-10-11T17:52:04.316Z,100.00
2022-10-11T17:55:07.479Z,100.00
2022-10-11T17:58:10.522Z,100.00
2022-10-11T18:01:16.000Z,100.00
2022-10-11T18:04:21.732Z,100.00
2022-10-11T18:07:26.004Z,100.00
2022-10-11T18:10:28.895Z,100.00
2022-10-11T18:13:31.810Z,100.00
2022-10-11T18:16:36.742Z,100.00
2022-10-11T18:19:39.615Z,100.00
2022-10-11T18:22:43.835Z,100.00
2022-10-11T18:25:49.144Z,100.00
2022-10-11T18:28:53.787Z,100.00
2022-10-11T18:31:56.847Z,100.00
2022-10-11T18:34:59.849Z,100.00
2022-10-11T18:38:04.717Z,100.00
2022-10-11T18:41:09.523Z,100.00
2022-10-11T18:44:15.611Z,100.00
2022-10-11T18:47:18.548Z,100.00
2022-10-11T18:50:21.669Z,100.00
2022-10-11T18:53:25.946Z,100.00
2022-10-11T18:56:31.199Z,100.00
2022-10-11T18:59:34.297Z,100.00
2022-10-11T19:02:37.186Z,100.00
2022-10-11T19:05:40.100Z,100.00
2022-10-11T19:08:44.636Z,100.00
2022-10-11T19:11:47.489Z,100.00
2022-10-11T19:14:50.356Z,100.00
2022-10-11T19:17:53.229Z,100.00
2022-10-11T19:20:56.074Z,100.00
2022-10-11T19:24:00.338Z,100.00
2022-10-11T19:27:03.288Z,100.00
2022-10-11T19:30:07.343Z,100.00
2022-10-11T19:33:11.552Z,100.00
2022-10-11T19:36:15.091Z,100.00
2022-10-11T19:39:19.986Z,100.00
2022-10-11T19:42:22.817Z,100.00
2022-10-11T19:45:25.663Z,100.00
2022-10-11T19:48:29.006Z,100.00
2022-10-11T19:51:34.902Z,100.00
2022-10-11T19:54:39.123Z,100.00
2022-10-11T19:57:42.016Z,100.00
2022-10-11T20:00:44.957Z,100.00
2022-10-11T20:03:50.648Z,100.00
2022-10-11T20:06:53.557Z,100.00
2022-10-11T20:09:57.794Z,100.00
2022-10-11T20:13:00.688Z,100.00
2022-10-11T20:16:06.521Z,100.00
2022-10-11T20:19:09.368Z,100.00
2022-10-11T20:22:12.228Z,100.00
2022-10-11T20:25:16.597Z,100.00
2022-10-11T20:28:19.500Z,100.00
2022-10-11T20:31:25.462Z,100.00
2022-10-11T20:34:28.807Z,100.00
2022-10-11T20:37:31.999Z,100.00
2022-10-11T20:40:40.414Z,100.00
2022-10-11T20:43:44.068Z,100.00
2022-10-11T20:46:47.182Z,100.00
2022-10-11T20:49:50.071Z,100.00
2022-10-11T20:52:53.037Z,100.00
2022-10-11T20:55:57.594Z,100.00
2022-10-11T20:59:00.781Z,100.00
2022-10-11T21:02:03.629Z,100.00
2022-10-11T21:05:07.697Z,100.00
2022-10-11T21:08:10.725Z,100.00
2022-10-11T21:11:15.161Z,100.00
2022-10-11T21:14:18.039Z,100.00
2022-10-11T21:17:20.995Z,100.00
2022-10-11T21:20:24.260Z,100.00
2022-10-11T21:23:27.140Z,100.00
2022-10-11T21:26:32.091Z,100.00
2022-10-11T21:29:34.967Z,100.00
2022-10-11T21:32:38.099Z,100.00
2022-10-11T21:35:41.381Z,100.00
2022-10-11T21:38:44.507Z,100.00
2022-10-11T21:41:48.729Z,100.00
2022-10-11T21:44:51.593Z,100.00
2022-10-11T21:47:54.616Z,100.00
2022-10-11T21:50:57.521Z,100.00
2022-10-11T21:54:01.182Z,100.00
2022-10-11T21:57:05.433Z,100.00
2022-10-11T22:00:09.412Z,100.00
2022-10-11T22:03:16.173Z,100.00
2022-10-11T22:06:19.100Z,100.00
2022-10-11T22:09:22.361Z,100.00
2022-10-11T22:12:26.835Z,100.00
2022-10-11T22:15:29.695Z,100.00
2022-10-11T22:18:33.818Z,100.00
2022-10-11T22:21:40.132Z,100.00
2022-10-11T22:24:45.486Z,100.00
2022-10-11T22:27:49.717Z,100.00
2022-10-11T22:30:52.629Z,100.00
2022-10-11T22:33:56.273Z,100.00
2022-10-11T22:36:59.291Z,100.00
2022-10-11T22:40:02.176Z,100.00
2022-10-11T22:43:06.486Z,100.00
2022-10-11T22:46:09.925Z,100.00
2022-10-11T22:49:12.878Z,100.00
2022-10-11T22:52:15.945Z,100.00
2022-10-11T22:55:20.241Z,100.00
2022-10-11T22:58:24.831Z,100.00
2022-10-11T23:01:27.831Z,100.00
2022-10-11T23:04:30.740Z,100.00
2022-10-11T23:07:33.779Z,100.00
2022-10-11T23:10:39.250Z,100.00
2022-10-11T23:13:43.645Z,100.00
2022-10-11T23:16:46.540Z,100.00
2022-10-11T23:19:49.511Z,100.00
2022-10-11T23:22:52.379Z,100.00
2022-10-11T23:26:02.272Z,100.00
2022-10-11T23:29:06.505Z,100.00
2022-10-11T23:32:10.081Z,100.00
2022-10-11T23:35:13.004Z,100.00
2022-10-11T23:38:15.938Z,100.00
2022-10-11T23:41:18.941Z,100.00
2022-10-11T23:44:23.189Z,100.00
2022-10-11T23:47:26.153Z,100.00
2022-10-11T23:50:29.073Z,100.00
2022-10-11T23:53:31.980Z,100.00
2022-10-11T23:56:34.943Z,100.00
2022-10-11T23:59:39.163Z,100.00
